sensor_id;sensor_type;location;lat;lon;timestamp;P1;durP1;ratioP1;P2;durP2;ratioP2
11653;SDS011;5883;48.818;9.114;2023-02-15T00:01:48;32.03;;;20.53;;
11653;SDS011;5883;48.818;9.114;2023-02-15T00:04:15;35.30;;;20.03;;
11653;SDS011;5883;48.818;9.114;2023-02-15T00:06:42;32.67;;;19.47;;
11653;SDS011;5883;48.818;9.114;2023-02-15T00:09:09;29.90;;;19.60;;
11653;SDS011;5883;48.818;9.114;2023-02-15T00:11:36;30.30;;;19.33;;
11653;SDS011;5883;48.818;9.114;2023-02-15T00:14:19;30.03;;;19.50;;
11653;SDS011;5883;48.818;9.114;2023-02-15T00:16:46;31.97;;;19.37;;
11653;SDS011;5883;48.818;9.114;2023-02-15T00:19:12;29.37;;;18.57;;
11653;SDS011;5883;48.818;9.114;2023-02-15T00:21:40;29.33;;;19.03;;
11653;SDS011;5883;48.818;9.114;2023-02-15T00:24:07;31.97;;;19.10;;
11653;SDS011;5883;48.818;9.114;2023-02-15T00:26:34;29.17;;;18.53;;
11653;SDS011;5883;48.818;9.114;2023-02-15T00:29:00;29.27;;;17.60;;
11653;SDS011;5883;48.818;9.114;2023-02-15T00:31:28;29.37;;;17.47;;
11653;SDS011;5883;48.818;9.114;2023-02-15T00:34:00;24.93;;;15.70;;
11653;SDS011;5883;48.818;9.114;2023-02-15T00:36:26;25.30;;;15.90;;
11653;SDS011;5883;48.818;9.114;2023-02-15T00:38:53;26.63;;;17.10;;
11653;SDS011;5883;48.818;9.114;2023-02-15T00:41:19;25.87;;;16.07;;
11653;SDS011;5883;48.818;9.114;2023-02-15T00:43:46;23.90;;;16.73;;
11653;SDS011;5883;48.818;9.114;2023-02-15T00:46:12;24.77;;;16.03;;
11653;SDS011;5883;48.818;9.114;2023-02-15T00:48:40;27.27;;;16.37;;
11653;SDS011;5883;48.818;9.114;2023-02-15T00:51:06;24.97;;;16.53;;
11653;SDS011;5883;48.818;9.114;2023-02-15T00:53:33;26.17;;;15.70;;
11653;SDS011;5883;48.818;9.114;2023-02-15T00:55:59;26.70;;;16.73;;
11653;SDS011;5883;48.818;9.114;2023-02-15T00:58:25;28.50;;;17.73;;
11653;SDS011;5883;48.818;9.114;2023-02-15T01:00:52;28.13;;;17.60;;
11653;SDS011;5883;48.818;9.114;2023-02-15T01:03:19;26.73;;;16.83;;
11653;SDS011;5883;48.818;9.114;2023-02-15T01:05:48;25.80;;;15.63;;
11653;SDS011;5883;48.818;9.114;2023-02-15T01:08:14;23.47;;;15.73;;
11653;SDS011;5883;48.818;9.114;2023-02-15T01:10:41;28.80;;;16.53;;
11653;SDS011;5883;48.818;9.114;2023-02-15T01:13:09;27.87;;;17.17;;
11653;SDS011;5883;48.818;9.114;2023-02-15T01:15:35;27.90;;;16.43;;
11653;SDS011;5883;48.818;9.114;2023-02-15T01:18:01;27.83;;;16.80;;
11653;SDS011;5883;48.818;9.114;2023-02-15T01:20:28;28.30;;;17.43;;
11653;SDS011;5883;48.818;9.114;2023-02-15T01:22:57;25.80;;;17.13;;
11653;SDS011;5883;48.818;9.114;2023-02-15T01:25:23;27.83;;;17.00;;
11653;SDS011;5883;48.818;9.114;2023-02-15T01:27:50;31.20;;;17.93;;
11653;SDS011;5883;48.818;9.114;2023-02-15T01:30:16;24.67;;;14.93;;
11653;SDS011;5883;48.818;9.114;2023-02-15T01:32:43;25.93;;;16.10;;
11653;SDS011;5883;48.818;9.114;2023-02-15T01:35:09;25.30;;;16.37;;
11653;SDS011;5883;48.818;9.114;2023-02-15T01:37:36;26.00;;;16.53;;
11653;SDS011;5883;48.818;9.114;2023-02-15T01:40:05;26.60;;;16.93;;
11653;SDS011;5883;48.818;9.114;2023-02-15T01:42:32;27.33;;;16.83;;
11653;SDS011;5883;48.818;9.114;2023-02-15T01:44:59;24.30;;;16.33;;
11653;SDS011;5883;48.818;9.114;2023-02-15T01:47:28;25.37;;;16.23;;
11653;SDS011;5883;48.818;9.114;2023-02-15T01:49:58;26.27;;;16.53;;
11653;SDS011;5883;48.818;9.114;2023-02-15T01:52:26;27.80;;;16.70;;
11653;SDS011;5883;48.818;9.114;2023-02-15T01:54:52;26.50;;;17.10;;
11653;SDS011;5883;48.818;9.114;2023-02-15T01:57:22;23.80;;;15.33;;
11653;SDS011;5883;48.818;9.114;2023-02-15T01:59:50;28.53;;;16.33;;
11653;SDS011;5883;48.818;9.114;2023-02-15T02:02:19;28.80;;;16.27;;
11653;SDS011;5883;48.818;9.114;2023-02-15T02:04:49;26.47;;;15.57;;
11653;SDS011;5883;48.818;9.114;2023-02-15T02:07:17;24.73;;;16.00;;
11653;SDS011;5883;48.818;9.114;2023-02-15T02:09:45;29.30;;;17.43;;
11653;SDS011;5883;48.818;9.114;2023-02-15T02:12:11;26.63;;;17.00;;
11653;SDS011;5883;48.818;9.114;2023-02-15T02:14:39;27.60;;;16.47;;
11653;SDS011;5883;48.818;9.114;2023-02-15T02:17:07;25.10;;;16.03;;
11653;SDS011;5883;48.818;9.114;2023-02-15T02:19:46;27.93;;;17.30;;
11653;SDS011;5883;48.818;9.114;2023-02-15T02:22:26;30.53;;;18.00;;
11653;SDS011;5883;48.818;9.114;2023-02-15T02:25:12;27.07;;;17.60;;
11653;SDS011;5883;48.818;9.114;2023-02-15T02:27:43;31.90;;;18.00;;
11653;SDS011;5883;48.818;9.114;2023-02-15T02:30:25;25.67;;;17.60;;
11653;SDS011;5883;48.818;9.114;2023-02-15T02:33:08;27.30;;;16.93;;
11653;SDS011;5883;48.818;9.114;2023-02-15T02:35:38;30.37;;;17.43;;
11653;SDS011;5883;48.818;9.114;2023-02-15T02:38:07;32.20;;;16.97;;
11653;SDS011;5883;48.818;9.114;2023-02-15T02:40:40;28.40;;;17.83;;
11653;SDS011;5883;48.818;9.114;2023-02-15T02:43:10;25.57;;;16.13;;
11653;SDS011;5883;48.818;9.114;2023-02-15T02:45:39;27.27;;;16.33;;
11653;SDS011;5883;48.818;9.114;2023-02-15T02:48:09;28.77;;;17.30;;
11653;SDS011;5883;48.818;9.114;2023-02-15T02:50:39;28.27;;;17.03;;
11653;SDS011;5883;48.818;9.114;2023-02-15T02:53:05;29.73;;;17.47;;
11653;SDS011;5883;48.818;9.114;2023-02-15T02:55:33;32.20;;;17.53;;
11653;SDS011;5883;48.818;9.114;2023-02-15T02:58:02;32.43;;;17.37;;
11653;SDS011;5883;48.818;9.114;2023-02-15T03:00:31;82.97;;;17.17;;
11653;SDS011;5883;48.818;9.114;2023-02-15T03:02:59;55.63;;;16.67;;
11653;SDS011;5883;48.818;9.114;2023-02-15T03:05:31;40.70;;;16.57;;
11653;SDS011;5883;48.818;9.114;2023-02-15T03:07:59;59.10;;;16.30;;
11653;SDS011;5883;48.818;9.114;2023-02-15T03:10:31;82.23;;;16.67;;
11653;SDS011;5883;48.818;9.114;2023-02-15T03:12:58;40.23;;;16.57;;
11653;SDS011;5883;48.818;9.114;2023-02-15T03:15:26;46.50;;;16.73;;
11653;SDS011;5883;48.818;9.114;2023-02-15T03:18:15;40.80;;;16.57;;
11653;SDS011;5883;48.818;9.114;2023-02-15T03:20:44;46.97;;;16.57;;
11653;SDS011;5883;48.818;9.114;2023-02-15T03:23:12;83.83;;;18.03;;
11653;SDS011;5883;48.818;9.114;2023-02-15T03:25:39;80.50;;;17.30;;
11653;SDS011;5883;48.818;9.114;2023-02-15T03:28:07;101.27;;;18.03;;
11653;SDS011;5883;48.818;9.114;2023-02-15T03:30:34;110.13;;;17.67;;
11653;SDS011;5883;48.818;9.114;2023-02-15T03:33:01;146.30;;;18.10;;
11653;SDS011;5883;48.818;9.114;2023-02-15T03:35:30;75.53;;;17.07;;
11653;SDS011;5883;48.818;9.114;2023-02-15T03:38:01;71.83;;;18.47;;
11653;SDS011;5883;48.818;9.114;2023-02-15T03:40:28;108.60;;;19.10;;
11653;SDS011;5883;48.818;9.114;2023-02-15T03:43:14;112.47;;;18.07;;
11653;SDS011;5883;48.818;9.114;2023-02-15T03:45:44;89.50;;;17.50;;
11653;SDS011;5883;48.818;9.114;2023-02-15T03:48:20;108.40;;;17.20;;
11653;SDS011;5883;48.818;9.114;2023-02-15T03:50:47;110.13;;;17.70;;
11653;SDS011;5883;48.818;9.114;2023-02-15T03:53:32;109.40;;;17.70;;
11653;SDS011;5883;48.818;9.114;2023-02-15T03:55:58;112.97;;;17.90;;
11653;SDS011;5883;48.818;9.114;2023-02-15T03:58:25;144.97;;;17.23;;
11653;SDS011;5883;48.818;9.114;2023-02-15T04:01:10;122.80;;;17.03;;
11653;SDS011;5883;48.818;9.114;2023-02-15T04:03:58;107.73;;;17.27;;
11653;SDS011;5883;48.818;9.114;2023-02-15T04:06:26;130.90;;;17.40;;
11653;SDS011;5883;48.818;9.114;2023-02-15T04:08:54;122.40;;;17.23;;
11653;SDS011;5883;48.818;9.114;2023-02-15T04:11:37;176.77;;;18.70;;
11653;SDS011;5883;48.818;9.114;2023-02-15T04:14:04;109.17;;;16.37;;
11653;SDS011;5883;48.818;9.114;2023-02-15T04:16:50;99.47;;;16.20;;
11653;SDS011;5883;48.818;9.114;2023-02-15T04:19:16;135.60;;;16.80;;
11653;SDS011;5883;48.818;9.114;2023-02-15T04:21:59;67.77;;;16.97;;
11653;SDS011;5883;48.818;9.114;2023-02-15T04:24:45;97.60;;;16.30;;
11653;SDS011;5883;48.818;9.114;2023-02-15T04:27:29;72.20;;;15.07;;
11653;SDS011;5883;48.818;9.114;2023-02-15T04:29:55;138.50;;;17.00;;
11653;SDS011;5883;48.818;9.114;2023-02-15T04:32:22;92.40;;;15.83;;
11653;SDS011;5883;48.818;9.114;2023-02-15T04:34:48;139.40;;;16.67;;
11653;SDS011;5883;48.818;9.114;2023-02-15T04:37:14;116.00;;;16.30;;
11653;SDS011;5883;48.818;9.114;2023-02-15T04:39:41;116.13;;;15.77;;
11653;SDS011;5883;48.818;9.114;2023-02-15T04:42:08;73.07;;;15.30;;
11653;SDS011;5883;48.818;9.114;2023-02-15T04:44:35;85.00;;;15.10;;
11653;SDS011;5883;48.818;9.114;2023-02-15T04:47:01;88.27;;;15.60;;
11653;SDS011;5883;48.818;9.114;2023-02-15T04:49:28;72.47;;;16.37;;
11653;SDS011;5883;48.818;9.114;2023-02-15T04:51:54;108.40;;;16.43;;
11653;SDS011;5883;48.818;9.114;2023-02-15T04:54:20;92.03;;;17.60;;
11653;SDS011;5883;48.818;9.114;2023-02-15T04:56:47;68.93;;;16.30;;
11653;SDS011;5883;48.818;9.114;2023-02-15T04:59:15;79.07;;;16.93;;
11653;SDS011;5883;48.818;9.114;2023-02-15T05:01:41;75.53;;;16.97;;
11653;SDS011;5883;48.818;9.114;2023-02-15T05:04:08;56.87;;;17.73;;
11653;SDS011;5883;48.818;9.114;2023-02-15T05:06:34;58.30;;;16.63;;
11653;SDS011;5883;48.818;9.114;2023-02-15T05:09:01;76.47;;;17.37;;
11653;SDS011;5883;48.818;9.114;2023-02-15T05:11:27;65.40;;;16.00;;
11653;SDS011;5883;48.818;9.114;2023-02-15T05:13:54;52.50;;;16.30;;
11653;SDS011;5883;48.818;9.114;2023-02-15T05:16:21;97.50;;;16.97;;
11653;SDS011;5883;48.818;9.114;2023-02-15T05:18:48;89.03;;;16.90;;
11653;SDS011;5883;48.818;9.114;2023-02-15T05:21:14;59.90;;;16.13;;
11653;SDS011;5883;48.818;9.114;2023-02-15T05:23:41;80.67;;;17.20;;
11653;SDS011;5883;48.818;9.114;2023-02-15T05:26:08;97.30;;;16.70;;
11653;SDS011;5883;48.818;9.114;2023-02-15T05:28:53;81.63;;;15.80;;
11653;SDS011;5883;48.818;9.114;2023-02-15T05:31:19;98.30;;;16.27;;
11653;SDS011;5883;48.818;9.114;2023-02-15T05:33:47;162.67;;;18.33;;
11653;SDS011;5883;48.818;9.114;2023-02-15T05:36:13;60.97;;;16.27;;
11653;SDS011;5883;48.818;9.114;2023-02-15T05:38:40;70.37;;;16.50;;
11653;SDS011;5883;48.818;9.114;2023-02-15T05:41:06;132.23;;;18.53;;
11653;SDS011;5883;48.818;9.114;2023-02-15T05:43:33;133.93;;;17.87;;
11653;SDS011;5883;48.818;9.114;2023-02-15T05:46:00;121.40;;;17.53;;
11653;SDS011;5883;48.818;9.114;2023-02-15T05:48:26;122.70;;;16.20;;
11653;SDS011;5883;48.818;9.114;2023-02-15T05:50:58;107.93;;;16.87;;
11653;SDS011;5883;48.818;9.114;2023-02-15T05:53:24;34.80;;;15.30;;
11653;SDS011;5883;48.818;9.114;2023-02-15T05:55:51;63.47;;;15.63;;
11653;SDS011;5883;48.818;9.114;2023-02-15T05:58:18;53.80;;;15.70;;
11653;SDS011;5883;48.818;9.114;2023-02-15T06:00:45;112.07;;;17.73;;
11653;SDS011;5883;48.818;9.114;2023-02-15T06:03:11;166.00;;;17.80;;
11653;SDS011;5883;48.818;9.114;2023-02-15T06:05:37;129.90;;;18.53;;
11653;SDS011;5883;48.818;9.114;2023-02-15T06:08:05;153.27;;;17.77;;
11653;SDS011;5883;48.818;9.114;2023-02-15T06:10:31;101.67;;;16.47;;
11653;SDS011;5883;48.818;9.114;2023-02-15T06:12:58;56.63;;;15.40;;
11653;SDS011;5883;48.818;9.114;2023-02-15T06:15:24;69.93;;;15.90;;
11653;SDS011;5883;48.818;9.114;2023-02-15T06:17:51;158.60;;;17.33;;
11653;SDS011;5883;48.818;9.114;2023-02-15T06:20:17;134.03;;;16.03;;
11653;SDS011;5883;48.818;9.114;2023-02-15T06:22:44;112.87;;;15.77;;
11653;SDS011;5883;48.818;9.114;2023-02-15T06:25:11;113.07;;;15.77;;
11653;SDS011;5883;48.818;9.114;2023-02-15T06:27:38;118.60;;;16.37;;
11653;SDS011;5883;48.818;9.114;2023-02-15T06:30:07;88.60;;;16.03;;
11653;SDS011;5883;48.818;9.114;2023-02-15T06:32:34;110.07;;;17.07;;
11653;SDS011;5883;48.818;9.114;2023-02-15T06:35:00;92.67;;;15.67;;
11653;SDS011;5883;48.818;9.114;2023-02-15T06:37:27;92.40;;;15.93;;
11653;SDS011;5883;48.818;9.114;2023-02-15T06:39:53;104.87;;;16.77;;
11653;SDS011;5883;48.818;9.114;2023-02-15T06:42:21;214.30;;;18.73;;
11653;SDS011;5883;48.818;9.114;2023-02-15T06:44:47;206.93;;;18.30;;
11653;SDS011;5883;48.818;9.114;2023-02-15T06:47:13;214.10;;;17.30;;
11653;SDS011;5883;48.818;9.114;2023-02-15T06:49:40;138.63;;;17.57;;
11653;SDS011;5883;48.818;9.114;2023-02-15T06:52:06;95.23;;;16.10;;
11653;SDS011;5883;48.818;9.114;2023-02-15T06:54:33;60.03;;;16.20;;
11653;SDS011;5883;48.818;9.114;2023-02-15T06:56:59;66.27;;;15.60;;
11653;SDS011;5883;48.818;9.114;2023-02-15T06:59:27;56.67;;;15.57;;
11653;SDS011;5883;48.818;9.114;2023-02-15T07:01:53;86.87;;;16.50;;
11653;SDS011;5883;48.818;9.114;2023-02-15T07:04:20;136.40;;;16.90;;
11653;SDS011;5883;48.818;9.114;2023-02-15T07:06:46;77.30;;;16.93;;
11653;SDS011;5883;48.818;9.114;2023-02-15T07:09:15;127.50;;;17.97;;
11653;SDS011;5883;48.818;9.114;2023-02-15T07:11:44;129.70;;;17.40;;
11653;SDS011;5883;48.818;9.114;2023-02-15T07:14:29;63.53;;;16.57;;
11653;SDS011;5883;48.818;9.114;2023-02-15T07:16:55;92.40;;;16.67;;
11653;SDS011;5883;48.818;9.114;2023-02-15T07:19:22;64.23;;;17.43;;
11653;SDS011;5883;48.818;9.114;2023-02-15T07:21:48;46.03;;;16.87;;
11653;SDS011;5883;48.818;9.114;2023-02-15T07:24:15;81.33;;;18.03;;
11653;SDS011;5883;48.818;9.114;2023-02-15T07:26:41;79.00;;;16.30;;
11653;SDS011;5883;48.818;9.114;2023-02-15T07:29:07;69.07;;;19.53;;
11653;SDS011;5883;48.818;9.114;2023-02-15T07:31:35;78.73;;;17.33;;
11653;SDS011;5883;48.818;9.114;2023-02-15T07:34:01;93.53;;;17.43;;
11653;SDS011;5883;48.818;9.114;2023-02-15T07:36:28;133.47;;;18.10;;
11653;SDS011;5883;48.818;9.114;2023-02-15T07:38:54;262.13;;;19.67;;
11653;SDS011;5883;48.818;9.114;2023-02-15T07:41:21;69.50;;;15.87;;
11653;SDS011;5883;48.818;9.114;2023-02-15T07:43:48;71.27;;;16.77;;
11653;SDS011;5883;48.818;9.114;2023-02-15T07:46:15;83.47;;;16.33;;
11653;SDS011;5883;48.818;9.114;2023-02-15T07:48:44;69.77;;;16.63;;
11653;SDS011;5883;48.818;9.114;2023-02-15T07:51:11;53.27;;;20.73;;
11653;SDS011;5883;48.818;9.114;2023-02-15T07:53:38;73.47;;;17.37;;
11653;SDS011;5883;48.818;9.114;2023-02-15T07:56:05;53.03;;;16.20;;
11653;SDS011;5883;48.818;9.114;2023-02-15T07:58:32;83.47;;;17.90;;
11653;SDS011;5883;48.818;9.114;2023-02-15T08:01:17;184.73;;;19.23;;
11653;SDS011;5883;48.818;9.114;2023-02-15T08:03:46;99.87;;;17.83;;
11653;SDS011;5883;48.818;9.114;2023-02-15T08:06:12;45.03;;;15.57;;
11653;SDS011;5883;48.818;9.114;2023-02-15T08:08:39;51.90;;;17.17;;
11653;SDS011;5883;48.818;9.114;2023-02-15T08:11:13;79.47;;;16.87;;
11653;SDS011;5883;48.818;9.114;2023-02-15T08:13:54;36.87;;;16.90;;
11653;SDS011;5883;48.818;9.114;2023-02-15T08:16:24;48.27;;;16.77;;
11653;SDS011;5883;48.818;9.114;2023-02-15T08:18:52;77.43;;;19.47;;
11653;SDS011;5883;48.818;9.114;2023-02-15T08:21:19;51.07;;;16.07;;
11653;SDS011;5883;48.818;9.114;2023-02-15T08:23:45;56.47;;;13.83;;
11653;SDS011;5883;48.818;9.114;2023-02-15T08:26:12;97.87;;;16.03;;
11653;SDS011;5883;48.818;9.114;2023-02-15T08:28:38;73.53;;;15.13;;
11653;SDS011;5883;48.818;9.114;2023-02-15T08:31:05;52.70;;;13.90;;
11653;SDS011;5883;48.818;9.114;2023-02-15T08:33:32;47.50;;;14.90;;
11653;SDS011;5883;48.818;9.114;2023-02-15T08:36:03;37.87;;;14.57;;
11653;SDS011;5883;48.818;9.114;2023-02-15T08:38:29;33.10;;;14.87;;
11653;SDS011;5883;48.818;9.114;2023-02-15T08:40:56;38.50;;;13.93;;
11653;SDS011;5883;48.818;9.114;2023-02-15T08:43:22;51.77;;;15.17;;
11653;SDS011;5883;48.818;9.114;2023-02-15T08:45:48;27.07;;;14.90;;
11653;SDS011;5883;48.818;9.114;2023-02-15T08:48:15;32.70;;;14.27;;
11653;SDS011;5883;48.818;9.114;2023-02-15T08:50:41;27.47;;;13.63;;
11653;SDS011;5883;48.818;9.114;2023-02-15T08:53:09;24.40;;;14.60;;
11653;SDS011;5883;48.818;9.114;2023-02-15T08:55:35;33.20;;;14.80;;
11653;SDS011;5883;48.818;9.114;2023-02-15T08:58:02;32.37;;;14.83;;
11653;SDS011;5883;48.818;9.114;2023-02-15T09:00:28;44.07;;;15.70;;
11653;SDS011;5883;48.818;9.114;2023-02-15T09:02:56;29.30;;;15.90;;
11653;SDS011;5883;48.818;9.114;2023-02-15T09:05:22;28.20;;;16.63;;
11653;SDS011;5883;48.818;9.114;2023-02-15T09:07:49;24.85;;;15.15;;
11653;SDS011;5883;48.818;9.114;2023-02-15T09:10:17;23.95;;;15.45;;
11653;SDS011;5883;48.818;9.114;2023-02-15T09:12:43;23.75;;;16.08;;
11653;SDS011;5883;48.818;9.114;2023-02-15T09:15:10;27.10;;;15.77;;
11653;SDS011;5883;48.818;9.114;2023-02-15T09:17:36;22.33;;;15.63;;
11653;SDS011;5883;48.818;9.114;2023-02-15T09:20:03;22.13;;;15.68;;
11653;SDS011;5883;48.818;9.114;2023-02-15T09:22:29;26.98;;;15.88;;
11653;SDS011;5883;48.818;9.114;2023-02-15T09:24:56;32.08;;;14.75;;
11653;SDS011;5883;48.818;9.114;2023-02-15T09:27:24;49.95;;;15.00;;
11653;SDS011;5883;48.818;9.114;2023-02-15T09:29:50;32.35;;;14.93;;
11653;SDS011;5883;48.818;9.114;2023-02-15T09:32:16;28.55;;;14.90;;
11653;SDS011;5883;48.818;9.114;2023-02-15T09:34:45;22.70;;;15.02;;
11653;SDS011;5883;48.818;9.114;2023-02-15T09:37:11;76.35;;;15.88;;
11653;SDS011;5883;48.818;9.114;2023-02-15T09:39:39;33.40;;;15.60;;
11653;SDS011;5883;48.818;9.114;2023-02-15T09:42:18;27.73;;;14.32;;
11653;SDS011;5883;48.818;9.114;2023-02-15T09:44:57;33.88;;;15.25;;
11653;SDS011;5883;48.818;9.114;2023-02-15T09:47:33;27.55;;;16.45;;
11653;SDS011;5883;48.818;9.114;2023-02-15T09:50:06;28.65;;;16.98;;
11653;SDS011;5883;48.818;9.114;2023-02-15T09:52:44;23.38;;;15.98;;
11653;SDS011;5883;48.818;9.114;2023-02-15T09:57:59;25.52;;;15.98;;
11653;SDS011;5883;48.818;9.114;2023-02-15T10:00:30;23.40;;;16.50;;
11653;SDS011;5883;48.818;9.114;2023-02-15T10:03:04;26.23;;;16.63;;
11653;SDS011;5883;48.818;9.114;2023-02-15T10:05:36;24.35;;;16.02;;
11653;SDS011;5883;48.818;9.114;2023-02-15T10:08:09;27.25;;;16.17;;
11653;SDS011;5883;48.818;9.114;2023-02-15T10:10:41;27.98;;;16.77;;
11653;SDS011;5883;48.818;9.114;2023-02-15T10:13:15;25.65;;;16.33;;
11653;SDS011;5883;48.818;9.114;2023-02-15T10:15:49;32.65;;;18.30;;
11653;SDS011;5883;48.818;9.114;2023-02-15T10:18:23;27.65;;;17.42;;
11653;SDS011;5883;48.818;9.114;2023-02-15T10:20:55;26.35;;;17.02;;
11653;SDS011;5883;48.818;9.114;2023-02-15T10:23:30;24.48;;;16.80;;
11653;SDS011;5883;48.818;9.114;2023-02-15T10:26:02;24.08;;;16.88;;
11653;SDS011;5883;48.818;9.114;2023-02-15T10:28:32;26.85;;;16.42;;
11653;SDS011;5883;48.818;9.114;2023-02-15T10:31:03;26.25;;;17.67;;
11653;SDS011;5883;48.818;9.114;2023-02-15T10:33:35;27.77;;;16.33;;
11653;SDS011;5883;48.818;9.114;2023-02-15T10:36:05;27.67;;;17.70;;
11653;SDS011;5883;48.818;9.114;2023-02-15T10:38:35;26.02;;;17.17;;
11653;SDS011;5883;48.818;9.114;2023-02-15T10:41:07;26.05;;;17.25;;
11653;SDS011;5883;48.818;9.114;2023-02-15T10:43:39;25.10;;;17.33;;
11653;SDS011;5883;48.818;9.114;2023-02-15T10:46:11;26.23;;;16.95;;
11653;SDS011;5883;48.818;9.114;2023-02-15T10:48:46;25.92;;;17.58;;
11653;SDS011;5883;48.818;9.114;2023-02-15T10:51:19;28.63;;;18.70;;
11653;SDS011;5883;48.818;9.114;2023-02-15T10:53:52;26.17;;;17.58;;
11653;SDS011;5883;48.818;9.114;2023-02-15T10:56:21;26.88;;;17.65;;
11653;SDS011;5883;48.818;9.114;2023-02-15T10:58:54;30.42;;;17.45;;
11653;SDS011;5883;48.818;9.114;2023-02-15T11:01:25;29.52;;;17.40;;
11653;SDS011;5883;48.818;9.114;2023-02-15T11:04:08;25.45;;;16.83;;
11653;SDS011;5883;48.818;9.114;2023-02-15T11:06:37;33.42;;;17.88;;
11653;SDS011;5883;48.818;9.114;2023-02-15T11:09:08;29.08;;;17.48;;
11653;SDS011;5883;48.818;9.114;2023-02-15T11:11:38;26.35;;;17.40;;
11653;SDS011;5883;48.818;9.114;2023-02-15T11:14:10;28.25;;;18.48;;
11653;SDS011;5883;48.818;9.114;2023-02-15T11:16:42;29.67;;;17.63;;
11653;SDS011;5883;48.818;9.114;2023-02-15T11:19:11;30.65;;;17.50;;
11653;SDS011;5883;48.818;9.114;2023-02-15T11:21:39;28.65;;;18.02;;
11653;SDS011;5883;48.818;9.114;2023-02-15T11:24:08;29.67;;;18.40;;
11653;SDS011;5883;48.818;9.114;2023-02-15T11:26:36;27.38;;;17.80;;
11653;SDS011;5883;48.818;9.114;2023-02-15T11:29:05;28.30;;;18.60;;
11653;SDS011;5883;48.818;9.114;2023-02-15T11:31:37;28.15;;;18.42;;
11653;SDS011;5883;48.818;9.114;2023-02-15T11:34:12;28.42;;;18.70;;
11653;SDS011;5883;48.818;9.114;2023-02-15T11:36:40;27.15;;;18.85;;
11653;SDS011;5883;48.818;9.114;2023-02-15T11:39:08;33.08;;;18.80;;
11653;SDS011;5883;48.818;9.114;2023-02-15T11:41:37;32.38;;;19.40;;
11653;SDS011;5883;48.818;9.114;2023-02-15T11:44:05;29.42;;;18.17;;
11653;SDS011;5883;48.818;9.114;2023-02-15T11:46:32;28.63;;;18.20;;
11653;SDS011;5883;48.818;9.114;2023-02-15T11:48:59;28.02;;;18.77;;
11653;SDS011;5883;48.818;9.114;2023-02-15T11:51:26;25.23;;;18.27;;
11653;SDS011;5883;48.818;9.114;2023-02-15T11:53:53;31.27;;;19.73;;
11653;SDS011;5883;48.818;9.114;2023-02-15T11:56:21;30.77;;;19.23;;
11653;SDS011;5883;48.818;9.114;2023-02-15T11:58:49;32.13;;;19.38;;
11653;SDS011;5883;48.818;9.114;2023-02-15T12:01:18;27.40;;;18.38;;
11653;SDS011;5883;48.818;9.114;2023-02-15T12:03:46;32.60;;;19.23;;
11653;SDS011;5883;48.818;9.114;2023-02-15T12:06:16;32.35;;;18.20;;
11653;SDS011;5883;48.818;9.114;2023-02-15T12:08:46;29.65;;;18.75;;
11653;SDS011;5883;48.818;9.114;2023-02-15T12:11:15;27.55;;;18.52;;
11653;SDS011;5883;48.818;9.114;2023-02-15T12:16:24;29.05;;;18.70;;
11653;SDS011;5883;48.818;9.114;2023-02-15T12:18:52;27.33;;;16.92;;
11653;SDS011;5883;48.818;9.114;2023-02-15T12:21:23;26.08;;;17.88;;
11653;SDS011;5883;48.818;9.114;2023-02-15T12:23:52;28.08;;;18.33;;
11653;SDS011;5883;48.818;9.114;2023-02-15T12:26:23;26.38;;;17.27;;
11653;SDS011;5883;48.818;9.114;2023-02-15T12:28:50;25.08;;;17.17;;
11653;SDS011;5883;48.818;9.114;2023-02-15T12:31:19;26.83;;;17.67;;
11653;SDS011;5883;48.818;9.114;2023-02-15T12:33:46;27.30;;;16.92;;
11653;SDS011;5883;48.818;9.114;2023-02-15T12:36:15;28.85;;;17.48;;
11653;SDS011;5883;48.818;9.114;2023-02-15T12:38:43;27.15;;;17.85;;
11653;SDS011;5883;48.818;9.114;2023-02-15T12:41:23;25.33;;;18.08;;
11653;SDS011;5883;48.818;9.114;2023-02-15T12:44:02;24.95;;;17.20;;
11653;SDS011;5883;48.818;9.114;2023-02-15T12:46:29;23.50;;;16.35;;
11653;SDS011;5883;48.818;9.114;2023-02-15T12:49:04;25.38;;;16.42;;
11653;SDS011;5883;48.818;9.114;2023-02-15T12:51:39;25.10;;;17.13;;
11653;SDS011;5883;48.818;9.114;2023-02-15T12:54:15;21.98;;;16.48;;
11653;SDS011;5883;48.818;9.114;2023-02-15T12:56:43;23.58;;;16.25;;
11653;SDS011;5883;48.818;9.114;2023-02-15T12:59:12;22.63;;;16.95;;
11653;SDS011;5883;48.818;9.114;2023-02-15T13:01:39;22.83;;;15.50;;
11653;SDS011;5883;48.818;9.114;2023-02-15T13:04:13;23.85;;;16.30;;
11653;SDS011;5883;48.818;9.114;2023-02-15T13:06:46;27.00;;;16.27;;
11653;SDS011;5883;48.818;9.114;2023-02-15T13:09:13;24.52;;;16.90;;
11653;SDS011;5883;48.818;9.114;2023-02-15T13:11:43;27.88;;;16.52;;
11653;SDS011;5883;48.818;9.114;2023-02-15T13:14:15;23.40;;;16.55;;
11653;SDS011;5883;48.818;9.114;2023-02-15T13:16:42;21.73;;;16.02;;
11653;SDS011;5883;48.818;9.114;2023-02-15T13:19:10;29.20;;;16.70;;
11653;SDS011;5883;48.818;9.114;2023-02-15T13:21:39;22.70;;;16.45;;
11653;SDS011;5883;48.818;9.114;2023-02-15T13:24:10;24.52;;;15.52;;
11653;SDS011;5883;48.818;9.114;2023-02-15T13:26:38;24.92;;;16.13;;
11653;SDS011;5883;48.818;9.114;2023-02-15T13:29:11;24.48;;;17.00;;
11653;SDS011;5883;48.818;9.114;2023-02-15T13:31:42;27.98;;;16.05;;
11653;SDS011;5883;48.818;9.114;2023-02-15T13:34:09;20.73;;;15.73;;
11653;SDS011;5883;48.818;9.114;2023-02-15T13:36:37;21.30;;;15.93;;
11653;SDS011;5883;48.818;9.114;2023-02-15T13:39:09;22.13;;;15.88;;
11653;SDS011;5883;48.818;9.114;2023-02-15T13:41:46;24.45;;;16.63;;
11653;SDS011;5883;48.818;9.114;2023-02-15T13:44:18;25.13;;;16.52;;
11653;SDS011;5883;48.818;9.114;2023-02-15T13:46:52;22.55;;;16.63;;
11653;SDS011;5883;48.818;9.114;2023-02-15T13:49:25;22.60;;;15.88;;
11653;SDS011;5883;48.818;9.114;2023-02-15T13:51:53;23.17;;;15.85;;
11653;SDS011;5883;48.818;9.114;2023-02-15T13:54:27;27.17;;;17.35;;
11653;SDS011;5883;48.818;9.114;2023-02-15T13:56:58;22.98;;;17.10;;
11653;SDS011;5883;48.818;9.114;2023-02-15T13:59:31;26.92;;;16.67;;
11653;SDS011;5883;48.818;9.114;2023-02-15T14:02:15;23.20;;;17.05;;
11653;SDS011;5883;48.818;9.114;2023-02-15T14:04:50;25.23;;;16.83;;
11653;SDS011;5883;48.818;9.114;2023-02-15T14:07:22;24.08;;;17.08;;
11653;SDS011;5883;48.818;9.114;2023-02-15T14:09:52;25.70;;;18.05;;
11653;SDS011;5883;48.818;9.114;2023-02-15T14:12:26;28.70;;;18.20;;
11653;SDS011;5883;48.818;9.114;2023-02-15T14:15:01;30.67;;;17.58;;
11653;SDS011;5883;48.818;9.114;2023-02-15T14:17:34;22.75;;;16.75;;
11653;SDS011;5883;48.818;9.114;2023-02-15T14:20:04;23.33;;;16.52;;
11653;SDS011;5883;48.818;9.114;2023-02-15T14:22:35;24.23;;;16.90;;
11653;SDS011;5883;48.818;9.114;2023-02-15T14:25:05;24.08;;;16.33;;
11653;SDS011;5883;48.818;9.114;2023-02-15T14:27:41;24.60;;;16.38;;
11653;SDS011;5883;48.818;9.114;2023-02-15T14:30:14;25.60;;;16.77;;
11653;SDS011;5883;48.818;9.114;2023-02-15T14:32:44;22.08;;;14.75;;
11653;SDS011;5883;48.818;9.114;2023-02-15T14:35:13;22.80;;;15.50;;
11653;SDS011;5883;48.818;9.114;2023-02-15T14:37:41;21.25;;;15.98;;
11653;SDS011;5883;48.818;9.114;2023-02-15T14:40:08;24.02;;;15.52;;
11653;SDS011;5883;48.818;9.114;2023-02-15T14:42:56;26.52;;;16.45;;
11653;SDS011;5883;48.818;9.114;2023-02-15T14:45:26;23.55;;;16.67;;
11653;SDS011;5883;48.818;9.114;2023-02-15T14:47:56;26.25;;;17.10;;
11653;SDS011;5883;48.818;9.114;2023-02-15T14:50:41;25.25;;;16.08;;
11653;SDS011;5883;48.818;9.114;2023-02-15T14:53:22;22.70;;;14.95;;